Time;durP1;ratioP1;P1;durP2;ratioP2;P2;SDS_P1;SDS_P2;PMS_P1;PMS_P2;Temp;Humidity;BMP_temperature;BMP_pressure;BME280_temperature;BME280_humidity;BME280_pressure;Samples;Min_cycle;Max_cycle;Signal;HPM_P1;HPM_P2
2021/11/17 02:26:15;;;;;;;19.50;9.10;;;;;;;6.40;71.23;95981.66;5036587;28;20052;-73
2021/11/17 02:29:29;;;;;;;16.98;9.40;;;;;;;6.42;70.80;95985.03;5035431;28;20024;-74
2021/11/17 02:31:54;;;;;;;13.73;9.07;;;;;;;6.46;71.15;95981.13;5035292;28;20037;-75
2021/11/17 02:34:32;;;;;;;17.48;10.43;;;;;;;6.43;71.25;95992.06;5036974;28;20025;-74
2021/11/17 02:37:06;;;;;;;15.07;10.05;;;;;;;6.40;71.39;95982.50;5034898;28;20530;-74
2021/11/17 02:40:14;;;;;;;13.95;10.15;;;;;;;6.42;70.57;95987.69;5036063;28;20053;-76
2021/11/17 02:42:42;;;;;;;16.25;9.82;;;;;;;6.46;70.66;95981.13;5035877;28;20527;-75
2021/11/17 02:45:14;;;;;;;16.77;9.90;;;;;;;6.49;70.91;95991.50;5034390;28;20462;-74
2021/11/17 02:47:46;;;;;;;15.55;10.02;;;;;;;6.41;71.31;95986.00;5037276;28;20080;-75
2021/11/17 02:50:30;;;;;;;19.17;10.52;;;;;;;6.40;71.15;95995.00;5033542;28;20064;-75
2021/11/17 02:53:20;;;;;;;20.60;11.30;;;;;;;6.39;71.53;95990.63;5036691;28;20029;-75
2021/11/17 02:55:55;;;;;;;15.68;10.38;;;;;;;6.43;71.25;95995.53;5037834;28;20021;-74
2021/11/17 02:58:27;;;;;;;18.45;11.82;;;;;;;6.49;70.88;95991.50;5035277;28;20122;-75
2021/11/17 03:01:11;;;;;;;19.10;11.85;;;;;;;6.44;71.36;95988.41;5034877;28;20040;-74
2021/11/17 03:03:52;;;;;;;17.73;11.50;;;;;;;6.49;70.67;95985.31;5034828;28;20033;-74
2021/11/17 03:06:42;;;;;;;16.25;10.65;;;;;;;6.51;70.96;95989.53;5034865;28;20065;-74
2021/11/17 03:09:46;;;;;;;16.90;10.55;;;;;;;6.54;70.63;95989.28;5037617;28;20036;-74
2021/11/17 03:12:17;;;;;;;;;;;;;;;6.52;71.12;95985.88;5031700;28;20041;-75
2021/11/17 03:15:00;;;;;;;18.88;11.95;;;;;;;6.45;71.19;95982.06;5035682;28;19913;-74
2021/11/17 03:17:32;;;;;;;;;;;;;;;6.40;71.17;95987.00;5037967;28;20024;-74
2021/11/17 03:20:07;;;;;;;18.65;11.48;;;;;;;6.31;71.38;95988.66;5034978;28;19909;-73
2021/11/17 03:22:48;;;;;;;17.05;11.13;;;;;;;6.34;71.49;95977.72;5036170;28;20277;-74
2021/11/17 03:25:23;;;;;;;18.17;11.35;;;;;;;6.39;71.60;95979.97;5034292;28;20021;-74
2021/11/17 03:28:21;;;;;;;18.30;11.32;;;;;;;6.39;72.13;95979.97;5038994;28;20471;-75
2021/11/17 03:30:47;;;;;;;19.00;11.95;;;;;;;6.36;71.91;95974.91;5041619;28;20028;-75
2021/11/17 03:33:18;;;;;;;17.10;11.73;;;;;;;6.37;72.40;95973.94;5037831;28;20033;-74
2021/11/17 03:35:47;;;;;;;20.13;11.48;;;;;;;6.38;71.87;95972.97;5039931;28;20025;-75
2021/11/17 03:38:21;;;;;;;18.75;11.93;;;;;;;6.39;72.39;95966.66;5038079;28;20029;-74
2021/11/17 03:41:05;;;;;;;16.65;11.30;;;;;;;6.36;72.12;95966.91;5039097;28;20094;-74
2021/11/17 03:43:49;;;;;;;16.73;10.93;;;;;;;6.40;72.68;95963.03;5038973;28;20104;-74
2021/11/17 03:46:51;;;;;;;17.23;10.75;;;;;;;6.42;72.95;95969.03;5038172;28;20033;-74
2021/11/17 03:49:52;;;;;;;17.77;11.10;;;;;;;6.47;72.37;95965.94;5042113;28;20024;-74
2021/11/17 03:52:24;;;;;;;19.00;10.93;;;;;;;6.47;72.38;95960.63;5041410;28;20123;-74
2021/11/17 03:55:15;;;;;;;20.52;11.77;;;;;;;6.45;72.11;95966.09;5039758;28;20115;-74
2021/11/17 03:57:46;;;;;;;17.45;10.20;;;;;;;6.41;72.72;95964.69;5040189;28;20503;-74
2021/11/17 04:00:14;;;;;;;20.65;11.50;;;;;;;6.46;72.22;95959.81;5038507;28;20032;-74
2021/11/17 04:02:45;;;;;;;15.88;10.45;;;;;;;6.46;72.57;95967.78;5039079;28;20490;-75
2021/11/17 04:05:38;;;;;;;16.45;10.60;;;;;;;6.46;72.62;95969.59;5040688;28;20116;-73
2021/11/17 04:08:22;;;;;;;18.98;10.15;;;;;;;6.48;71.81;95960.47;5038896;28;20038;-74
2021/11/17 04:11:40;;;;;;;16.70;10.55;;;;;;;6.52;72.29;95961.06;5040827;28;20021;-75
2021/11/17 04:14:05;;;;;;;15.80;10.27;;;;;;;6.45;72.06;95963.44;5038082;28;20118;-74
2021/11/17 04:17:13;;;;;;;14.70;9.95;;;;;;;6.45;71.73;95974.09;5039053;28;20021;-74
2021/11/17 04:19:41;;;;;;;17.42;9.90;;;;;;;6.40;72.19;95966.50;5038843;28;20099;-74
2021/11/17 04:22:20;;;;;;;14.80;9.63;;;;;;;6.32;71.82;95965.53;5038254;28;20652;-75
2021/11/17 04:25:05;;;;;;;16.33;9.35;;;;;;;6.32;72.37;95974.34;5038699;28;20531;-75
2021/11/17 04:27:36;;;;;;;13.75;9.18;;;;;;;6.30;72.71;95971.00;5040284;28;20029;-74
2021/11/17 04:30:23;;;;;;;17.05;9.10;;;;;;;6.42;71.82;95964.56;5038524;28;20025;-74
2021/11/17 04:32:54;;;;;;;15.95;10.00;;;;;;;6.37;72.42;95965.94;5039674;28;20511;-74
2021/11/17 04:35:30;;;;;;;16.73;10.10;;;;;;;6.37;72.08;95972.13;5039152;28;20036;-74
2021/11/17 04:38:33;;;;;;;15.25;9.73;;;;;;;6.36;71.65;95965.09;5036711;28;20037;-74
2021/11/17 04:41:11;;;;;;;14.77;9.50;;;;;;;6.32;72.44;95966.34;5038995;28;20491;-76
2021/11/17 04:43:40;;;;;;;17.38;9.45;;;;;;;6.32;72.22;95970.84;5038011;28;20082;-75
2021/11/17 04:46:18;;;;;;;14.18;9.38;;;;;;;6.29;72.41;95962.16;5037162;28;20039;-74
2021/11/17 04:49:08;;;;;;;14.82;9.10;;;;;;;6.28;73.05;95970.28;5039418;28;20064;-75
2021/11/17 04:51:36;;;;;;;15.80;9.15;;;;;;;6.23;72.49;95968.03;5036341;28;20108;-74
2021/11/17 04:54:04;;;;;;;17.02;9.82;;;;;;;6.24;72.65;95967.03;5038592;28;20494;-74
2021/11/17 04:56:33;;;;;;;14.73;8.90;;;;;;;6.29;72.75;95979.94;5039301;28;20029;-75
2021/11/17 04:59:04;;;;;;;15.43;8.77;;;;;;;6.31;72.73;95978.00;5037701;28;20017;-75
2021/11/17 05:01:45;;;;;;;13.63;8.30;;;;;;;6.27;72.83;95977.41;5037504;28;20518;-75
2021/11/17 05:04:32;;;;;;;16.85;9.40;;;;;;;6.23;72.69;95975.16;5034573;28;20412;-74
2021/11/17 05:07:30;;;;;;;15.68;9.57;;;;;;;6.27;73.04;95981.91;5038212;28;20055;-75
2021/11/17 05:10:17;;;;;;;14.02;9.30;;;;;;;6.23;72.81;95984.00;5037418;28;20389;-74
2021/11/17 05:13:13;;;;;;;13.60;8.52;;;;;;;6.19;73.08;95985.25;5037164;28;20036;-74
2021/11/17 05:16:04;;;;;;;16.60;9.52;;;;;;;6.22;72.65;95985.00;5038188;28;20029;-73
2021/11/17 05:18:49;;;;;;;15.27;9.13;;;;;;;6.22;73.01;95985.00;5036493;28;20041;-75
2021/11/17 05:21:24;;;;;;;18.25;9.50;;;;;;;6.25;72.39;95987.38;5036485;28;20496;-74
2021/11/17 05:24:10;;;;;;;16.88;9.60;;;;;;;6.32;71.82;95984.19;5036982;28;20029;-74
2021/11/17 05:27:06;;;;;;;15.80;9.23;;;;;;;6.33;71.67;95976.03;5036706;28;20080;-74
2021/11/17 05:29:35;;;;;;;16.90;9.43;;;;;;;6.24;71.54;95980.34;5037499;28;20448;-74
2021/11/17 05:32:19;;;;;;;15.55;9.38;;;;;;;6.23;71.32;95986.66;5038274;28;20478;-75
2021/11/17 05:34:56;;;;;;;14.98;9.15;;;;;;;6.22;71.80;95992.13;5036842;28;20582;-75
2021/11/17 05:37:52;;;;;;;15.45;9.52;;;;;;;6.24;71.27;95985.69;5037690;28;20515;-73
2021/11/17 05:40:23;;;;;;;16.02;9.63;;;;;;;6.21;70.89;95990.47;5037956;28;20041;-74
2021/11/17 05:43:13;;;;;;;17.20;10.00;;;;;;;6.24;70.79;95999.00;5034919;28;20041;-75
2021/11/17 05:45:57;;;;;;;14.43;9.10;;;;;;;6.23;71.32;96002.66;5037378;28;20083;-75
2021/11/17 05:49:01;;;;;;;18.15;10.15;;;;;;;6.21;71.82;96004.59;5036964;28;20351;-75
2021/11/17 05:51:45;;;;;;;16.48;9.63;;;;;;;6.14;71.78;95996.31;5037511;28;20480;-74
2021/11/17 05:54:47;;;;;;;18.00;10.90;;;;;;;6.21;71.26;96004.59;5039008;28;20056;-75
2021/11/17 05:57:56;;;;;;;19.52;11.02;;;;;;;6.26;71.16;96014.84;5038431;28;20029;-74
2021/11/17 06:00:43;;;;;;;15.38;9.68;;;;;;;6.29;70.98;96010.09;5034067;28;20491;-75
2021/11/17 06:03:26;;;;;;;17.13;10.55;;;;;;;6.35;70.83;96016.69;5038581;28;20036;-77
2021/11/17 06:05:51;;;;;;;17.67;10.35;;;;;;;6.31;71.04;96015.28;5037868;28;20059;-76
2021/11/17 06:08:16;;;;;;;13.23;9.82;;;;;;;6.25;70.76;96014.03;5034582;28;20358;-77
2021/11/17 06:10:43;;;;;;;17.55;10.68;;;;;;;6.19;70.70;96017.19;5031081;28;20068;-75
2021/11/17 06:13:09;;;;;;;15.45;10.25;;;;;;;6.28;71.01;96016.41;5027580;28;20036;-75
2021/11/17 06:15:35;;;;;;;17.70;10.90;;;;;;;6.26;71.16;96023.69;5047045;28;20419;-75
2021/11/17 06:18:01;;;;;;;16.15;10.77;;;;;;;6.31;70.87;96031.28;5043842;28;20086;-75
2021/11/17 06:20:26;;;;;;;17.08;11.65;;;;;;;6.36;70.31;96021.06;5040355;28;20483;-75
2021/11/17 06:22:57;;;;;;;17.98;11.68;;;;;;;6.35;70.25;96026.53;5043038;28;20028;-74
2021/11/17 06:25:22;;;;;;;19.50;12.18;;;;;;;6.40;70.52;96032.28;5028429;28;20028;-75
2021/11/17 06:27:50;;;;;;;24.00;13.50;;;;;;;6.45;70.47;96029.22;5024056;28;20072;-75
2021/11/17 06:30:17;;;;;;;23.25;13.43;;;;;;;6.50;69.80;96035.81;5030185;28;20028;-74
2021/11/17 06:32:42;;;;;;;17.73;12.98;;;;;;;6.50;69.86;96033.16;5030838;28;20038;-75
2021/11/17 06:35:08;;;;;;;22.58;14.60;;;;;;;6.47;70.38;96037.91;5028405;28;20045;-75
2021/11/17 06:37:34;;;;;;;23.80;14.18;;;;;;;6.46;70.31;96045.06;5047001;28;20079;-74
2021/11/17 06:40:01;;;;;;;20.58;13.85;;;;;;;6.45;69.71;96054.03;5036368;28;20041;-76
2021/11/17 06:42:33;;;;;;;21.83;13.30;;;;;;;6.48;69.97;96043.09;5030593;28;20029;-74
2021/11/17 06:44:59;;;;;;;;;;;;;;;6.43;69.60;96040.84;5037945;28;20025;-77
2021/11/17 06:47:24;;;;;;;20.27;13.10;;;;;;;6.48;69.81;96053.75;5037972;28;19916;-75
2021/11/17 06:49:53;;;;;;;24.88;13.48;;;;;;;6.57;69.47;96051.25;5042893;28;20561;-74
2021/11/17 06:52:19;;;;;;;19.73;12.07;;;;;;;6.59;68.94;96046.63;5034234;28;20435;-75
2021/11/17 06:54:44;;;;;;;17.52;12.15;;;;;;;6.59;69.07;96041.31;5032523;28;20099;-77
2021/11/17 06:57:10;;;;;;;19.55;12.07;;;;;;;6.55;68.90;96038.91;5029776;28;20025;-77
2021/11/17 06:59:35;;;;;;;19.50;12.15;;;;;;;6.58;69.10;96040.47;5036528;28;20040;-74
2021/11/17 07:02:05;;;;;;;19.20;12.82;;;;;;;6.48;69.82;96042.28;5035217;28;20094;-75
2021/11/17 07:04:32;;;;;;;20.45;12.60;;;;;;;6.54;69.66;96041.72;5035951;28;20117;-74
2021/11/17 07:06:57;;;;;;;20.17;12.25;;;;;;;6.61;68.70;96042.03;5036760;28;20059;-76
2021/11/17 07:09:23;;;;;;;17.15;11.75;;;;;;;6.66;68.35;96039.75;5039055;28;20029;-75
2021/11/17 07:11:48;;;;;;;16.65;12.27;;;;;;;6.72;68.09;96044.56;5037629;28;20642;-73
2021/11/17 07:14:16;;;;;;;17.02;12.93;;;;;;;6.81;67.90;96050.88;5036362;28;20025;-75
2021/11/17 07:16:41;;;;;;;18.13;12.38;;;;;;;6.85;67.95;96049.63;5036460;28;20080;-75
2021/11/17 07:19:09;;;;;;;18.58;11.98;;;;;;;6.89;67.53;96051.03;5044093;28;20025;-76
2021/11/17 07:21:34;;;;;;;15.60;11.98;;;;;;;6.92;67.54;96044.56;5037532;28;20025;-76
2021/11/17 07:23:59;;;;;;;21.13;11.82;;;;;;;6.97;66.91;96047.69;5045689;28;20036;-76
2021/11/17 07:26:26;;;;;;;17.73;12.13;;;;;;;6.97;67.43;96042.34;5042232;28;20041;-75
2021/11/17 07:28:51;;;;;;;17.52;11.27;;;;;;;6.98;66.70;96044.00;5039459;28;20052;-75
2021/11/17 07:31:16;;;;;;;17.45;10.68;;;;;;;7.02;66.60;96049.91;5043556;28;20388;-75
2021/11/17 07:33:42;;;;;;;16.42;10.27;;;;;;;7.04;66.52;96053.31;5036292;28;20025;-76
2021/11/17 07:36:07;;;;;;;18.73;10.77;;;;;;;7.00;66.31;96055.41;5030508;28;20041;-75
2021/11/17 07:38:33;;;;;;;17.73;9.98;;;;;;;7.01;66.57;96057.06;5033646;28;20117;-74
2021/11/17 07:40:58;;;;;;;14.07;9.70;;;;;;;7.07;66.37;96058.34;5040583;28;20021;-75
2021/11/17 07:43:25;;;;;;;17.27;10.90;;;;;;;7.09;66.18;96055.53;5043219;28;20384;-74
2021/11/17 07:45:51;;;;;;;20.27;12.52;;;;;;;7.07;65.78;96058.34;5045630;28;20107;-76
2021/11/17 07:48:17;;;;;;;23.27;13.82;;;;;;;7.13;65.68;96051.59;5039097;28;20475;-73
2021/11/17 07:50:43;;;;;;;20.95;11.63;;;;;;;7.12;65.40;96049.94;5035712;28;20021;-73
2021/11/17 07:53:09;;;;;;;23.20;12.35;;;;;;;7.11;65.80;96064.25;5036231;28;20021;-75
2021/11/17 07:55:38;;;;;;;19.25;12.02;;;;;;;7.12;64.90;96056.13;5037737;28;20021;-74
2021/11/17 07:58:03;;;;;;;22.20;13.85;;;;;;;7.13;65.42;96049.78;5035071;28;20558;-73
2021/11/17 08:00:29;;;;;;;18.00;12.38;;;;;;;7.08;65.18;96053.88;5025329;28;20483;-74
2021/11/17 08:02:55;;;;;;;18.85;12.07;;;;;;;7.09;64.62;96052.88;5042944;28;20460;-74
2021/11/17 08:05:21;;;;;;;20.02;12.40;;;;;;;7.11;64.50;96046.41;5014523;28;20476;-73
2021/11/17 08:07:47;;;;;;;20.27;11.95;;;;;;;7.11;64.71;96049.06;5017899;28;20025;-73
2021/11/17 08:10:14;;;;;;;18.85;11.90;;;;;;;7.14;64.53;96047.97;5007168;28;20630;-73
2021/11/17 08:12:40;;;;;;;23.35;13.15;;;;;;;7.16;64.43;96052.19;5020608;28;20606;-73
2021/11/17 08:15:06;;;;;;;24.75;13.52;;;;;;;7.12;64.65;96050.78;5040665;28;20044;-74
2021/11/17 08:17:31;;;;;;;25.52;13.18;;;;;;;7.17;63.96;96053.03;5043112;28;20041;-72
2021/11/17 08:19:56;;;;;;;19.50;12.55;;;;;;;7.14;64.35;96053.31;5043600;28;20025;-73
2021/11/17 08:22:22;;;;;;;27.00;14.65;;;;;;;7.21;64.18;96059.75;5040243;28;20040;-73
2021/11/17 08:24:47;;;;;;;22.67;14.13;;;;;;;7.20;63.88;96050.06;5036175;28;20048;-73
2021/11/17 08:27:18;;;;;;;18.33;12.52;;;;;;;7.23;63.89;96051.59;5042744;28;20025;-74
2021/11/17 08:29:49;;;;;;;25.92;13.57;;;;;;;7.29;63.72;96059.91;5033634;28;20025;-73
2021/11/17 08:32:15;;;;;;;24.15;14.70;;;;;;;7.30;63.56;96056.25;5032742;28;20498;-75
2021/11/17 08:34:41;;;;;;;22.27;13.75;;;;;;;7.32;63.64;96063.28;5036916;28;20056;-74
2021/11/17 08:37:07;;;;;;;22.55;13.73;;;;;;;7.31;63.40;96054.41;5033228;28;20495;-74
2021/11/17 08:39:32;;;;;;;22.48;13.02;;;;;;;7.33;63.11;96059.63;5040837;28;20033;-73
2021/11/17 08:41:58;;;;;;;21.92;12.95;;;;;;;7.39;63.06;96059.03;5037423;28;20025;-74
2021/11/17 08:44:23;;;;;;;17.05;12.30;;;;;;;7.40;62.53;96063.38;5046307;28;20024;-73
2021/11/17 08:46:49;;;;;;;22.08;13.05;;;;;;;7.45;62.45;96060.31;5048338;28;20487;-75
2021/11/17 08:49:14;;;;;;;23.70;13.93;;;;;;;7.43;62.27;96065.81;5045632;28;20404;-75
2021/11/17 08:51:40;;;;;;;20.10;13.18;;;;;;;7.46;62.48;96070.00;5046343;28;20565;-74
2021/11/17 08:54:06;;;;;;;18.92;12.43;;;;;;;7.39;62.24;96062.56;5040773;28;20036;-75
2021/11/17 08:56:31;;;;;;;19.45;12.55;;;;;;;7.41;62.36;96071.28;5028739;28;20613;-74
2021/11/17 08:58:57;;;;;;;21.10;13.30;;;;;;;7.36;62.90;96057.50;5045972;28;20081;-73
2021/11/17 09:01:22;;;;;;;18.17;12.35;;;;;;;7.43;62.85;96068.47;5045211;28;20017;-73
2021/11/17 09:03:48;;;;;;;18.25;13.05;;;;;;;7.48;62.01;96057.38;5034659;28;20033;-73
2021/11/17 09:06:13;;;;;;;20.65;12.95;;;;;;;7.54;62.49;96054.13;5037771;28;20423;-73
2021/11/17 09:08:40;;;;;;;20.92;13.40;;;;;;;7.62;62.52;96050.75;5037201;28;20910;-75
2021/11/17 09:11:08;;;;;;;19.75;12.20;;;;;;;7.67;62.59;96053.81;5019748;28;20067;-76
2021/11/17 09:13:34;;;;;;;20.50;13.77;;;;;;;7.74;62.50;96052.25;5039916;28;20029;-74
2021/11/17 09:15:59;;;;;;;22.20;13.88;;;;;;;7.81;62.00;96054.34;5035525;28;20025;-75
2021/11/17 09:18:26;;;;;;;19.88;12.02;;;;;;;7.72;62.35;96053.41;5045553;28;20476;-74
2021/11/17 09:20:52;;;;;;;17.00;11.43;;;;;;;7.75;62.19;96047.75;5046645;28;20111;-73
2021/11/17 09:23:18;;;;;;;19.65;13.52;;;;;;;7.81;62.13;96052.53;5042491;28;20036;-74
2021/11/17 09:25:44;;;;;;;17.65;12.50;;;;;;;7.80;62.09;96048.19;5047427;28;20466;-74
2021/11/17 09:28:10;;;;;;;19.05;13.32;;;;;;;7.78;61.82;96056.34;5045394;28;20500;-80
2021/11/17 09:30:36;;;;;;;20.02;13.38;;;;;;;7.59;61.64;96054.53;5047064;28;20029;-75
2021/11/17 09:33:02;;;;;;;19.45;13.10;;;;;;;7.72;61.71;96048.88;5039922;28;20087;-73
2021/11/17 09:35:31;;;;;;;19.38;13.57;;;;;;;7.76;61.39;96052.09;5034793;28;20033;-73
2021/11/17 09:37:57;;;;;;;20.52;12.85;;;;;;;7.76;61.40;96047.63;5040032;28;20546;-73
2021/11/17 09:40:26;;;;;;;16.42;12.55;;;;;;;7.80;61.35;96050.84;5045374;28;20039;-74
2021/11/17 09:42:51;;;;;;;19.00;12.23;;;;;;;7.83;61.46;96044.38;5044804;28;20033;-74
2021/11/17 09:45:19;;;;;;;19.92;13.18;;;;;;;7.78;61.93;96042.97;5043556;28;20502;-76
2021/11/17 09:47:44;;;;;;;22.88;14.20;;;;;;;7.81;61.73;96038.31;5045811;28;20029;-74
2021/11/17 09:50:19;;;;;;;26.65;13.85;;;;;;;7.91;61.37;96044.50;5023254;28;20063;-74
2021/11/17 09:52:49;;;;;;;17.42;11.70;;;;;;;7.95;60.34;96035.19;5035999;28;20494;-73
2021/11/17 09:55:19;;;;;;;15.73;11.80;;;;;;;7.95;60.23;96034.38;5037918;28;20032;-75
2021/11/17 09:57:50;;;;;;;18.45;11.85;;;;;;;8.03;60.29;96029.09;5033664;28;20044;-75
2021/11/17 10:00:37;;;;;;;16.60;11.77;;;;;;;7.99;60.45;96020.56;5045649;28;20127;-74
2021/11/17 10:03:19;;;;;;;14.50;11.13;;;;;;;8.00;60.16;96019.56;5025791;28;20470;-76
2021/11/17 10:14:11;;;;;;;18.98;11.80;;;;;;;7.97;59.40;96006.50;5021787;28;20116;-75
2021/11/17 10:16:37;;;;;;;14.05;10.57;;;;;;;7.94;59.31;96001.47;5034264;28;20049;-76
2021/11/17 10:19:21;;;;;;;15.15;11.30;;;;;;;7.94;59.96;95995.25;5034005;28;20143;-75
2021/11/17 10:21:48;;;;;;;14.75;10.07;;;;;;;7.90;59.93;95992.03;5059139;28;20532;-75
2021/11/17 10:24:20;;;;;;;15.18;9.95;;;;;;;7.94;59.65;95988.09;5016331;28;20420;-76
2021/11/17 10:26:59;;;;;;;15.05;10.63;;;;;;;8.04;59.68;95999.56;5034311;28;20063;-74
2021/11/17 10:29:41;;;;;;;11.98;9.10;;;;;;;8.04;59.33;95993.41;5039197;28;20025;-76
2021/11/17 10:32:21;;;;;;;13.05;9.90;;;;;;;8.00;59.40;95987.50;5039128;28;20028;-76
2021/11/17 10:34:59;;;;;;;13.52;10.93;;;;;;;8.01;60.11;95985.69;5033131;28;20456;-75
2021/11/17 10:37:26;;;;;;;15.30;10.30;;;;;;;8.04;59.71;95983.53;5043188;28;20120;-75
2021/11/17 10:39:52;;;;;;;12.73;9.75;;;;;;;8.15;59.41;95971.00;5043614;28;20041;-75
2021/11/17 10:42:20;;;;;;;12.32;9.73;;;;;;;8.21;59.34;95975.75;5042701;28;20487;-75
2021/11/17 10:45:00;;;;;;;14.07;9.45;;;;;;;8.25;59.80;95966.44;5045134;28;20036;-75
2021/11/17 10:47:28;;;;;;;11.77;8.32;;;;;;;8.28;58.58;95962.63;5044879;28;20108;-74
2021/11/17 10:49:56;;;;;;;13.50;9.10;;;;;;;8.21;58.29;95959.72;5042359;28;20041;-76
2021/11/17 10:52:33;;;;;;;13.00;9.77;;;;;;;8.20;58.54;95963.38;5045576;28;20479;-73
2021/11/17 10:54:59;;;;;;;16.17;10.35;;;;;;;8.26;58.70;95973.47;5042862;28;20029;-76
2021/11/17 10:57:30;;;;;;;11.90;8.68;;;;;;;8.27;58.97;95972.47;5037419;28;20078;-75
2021/11/17 10:59:57;;;;;;;14.32;8.80;;;;;;;8.33;58.63;95960.34;5045483;28;20531;-76
2021/11/17 11:02:23;;;;;;;11.15;9.05;;;;;;;8.36;58.67;95959.22;5043661;28;20025;-76
2021/11/17 11:05:01;;;;;;;12.32;9.25;;;;;;;8.44;58.91;95958.44;5026267;28;20028;-75
2021/11/17 11:07:30;;;;;;;14.82;10.77;;;;;;;8.61;58.21;95960.34;5024746;28;20046;-76
2021/11/17 11:10:07;;;;;;;12.77;9.45;;;;;;;8.70;56.97;95952.41;5012216;28;20123;-75
2021/11/17 11:12:33;;;;;;;10.38;8.48;;;;;;;8.74;57.10;95949.25;5040896;28;20415;-76
2021/11/17 11:15:17;;;;;;;11.50;8.27;;;;;;;8.72;57.35;95947.75;5027289;28;20099;-74
2021/11/17 11:18:10;;;;;;;14.00;9.05;;;;;;;8.91;57.18;95944.06;5042772;28;20114;-74
2021/11/17 11:20:44;;;;;;;11.80;8.40;;;;;;;8.95;58.08;95941.91;5034968;28;20132;-77
2021/11/17 11:23:15;;;;;;;17.80;8.40;;;;;;;9.00;58.30;95942.28;5037001;28;20029;-74
2021/11/17 11:25:50;;;;;;;10.02;7.97;;;;;;;9.08;57.25;95941.50;5038389;28;20093;-75
2021/11/17 11:28:41;;;;;;;10.85;8.45;;;;;;;9.21;57.45;95946.47;5044857;28;20053;-75
2021/11/17 11:31:07;;;;;;;13.02;8.38;;;;;;;9.31;56.65;95943.69;5045853;28;20025;-75
2021/11/17 11:33:40;;;;;;;12.35;8.50;;;;;;;9.38;56.59;95942.91;5039744;28;20026;-75
2021/11/17 11:36:11;;;;;;;12.07;9.30;;;;;;;9.18;56.31;95938.75;5045818;28;20070;-76
2021/11/17 11:38:42;;;;;;;12.27;8.85;;;;;;;9.24;56.41;95936.28;5045269;28;20076;-74
2021/11/17 11:41:54;;;;;;;11.65;8.75;;;;;;;9.20;55.83;95929.59;5044757;28;20025;-75
2021/11/17 11:44:20;;;;;;;10.18;7.70;;;;;;;8.99;56.87;95925.41;5041541;28;20055;-75
2021/11/17 11:46:57;;;;;;;10.55;8.63;;;;;;;9.00;57.25;95927.09;5043593;28;20025;-76
2021/11/17 11:49:57;;;;;;;11.65;8.27;;;;;;;8.93;57.39;95920.66;5048119;28;20033;-75
2021/11/17 11:52:22;;;;;;;12.38;8.93;;;;;;;8.65;57.11;95926.13;5048924;28;20036;-76
2021/11/17 11:54:54;;;;;;;11.10;7.80;;;;;;;8.69;57.42;95924.81;5047501;28;20392;-75
2021/11/17 11:57:28;;;;;;;11.55;8.60;;;;;;;8.67;57.66;95925.97;5049530;28;20028;-74
2021/11/17 12:00:02;;;;;;;12.32;8.68;;;;;;;8.63;58.07;95914.72;5048200;28;20029;-74
2021/11/17 12:02:28;;;;;;;12.82;8.60;;;;;;;8.68;57.62;95917.78;5047444;28;20025;-75
2021/11/17 12:05:01;;;;;;;11.98;9.00;;;;;;;8.73;57.97;95920.00;5048013;28;20025;-75
2021/11/17 12:07:32;;;;;;;12.60;9.05;;;;;;;8.70;57.44;95920.31;5045501;28;20060;-77
2021/11/17 12:10:07;;;;;;;14.10;8.85;;;;;;;8.59;57.23;95914.19;5048474;28;20125;-75
2021/11/17 12:12:35;;;;;;;11.98;8.85;;;;;;;8.52;57.24;95923.78;5046041;28;20060;-75
2021/11/17 12:15:34;;;;;;;12.32;8.70;;;;;;;8.60;57.35;95928.41;5048165;28;20025;-75
2021/11/17 12:18:18;;;;;;;12.07;8.10;;;;;;;8.39;58.10;95918.81;5048592;28;20403;-74
2021/11/17 12:21:00;;;;;;;10.52;8.35;;;;;;;8.44;57.82;95911.19;5046938;28;20569;-74
2021/11/17 12:23:31;;;;;;;12.10;9.50;;;;;;;8.42;58.17;95905.13;5046462;28;20021;-73
2021/11/17 12:26:10;;;;;;;14.02;9.52;;;;;;;8.41;58.12;95906.97;5035750;28;20033;-72
2021/11/17 12:28:48;;;;;;;12.55;9.75;;;;;;;8.49;57.98;95906.22;5043830;28;20519;-74
2021/11/17 12:31:21;;;;;;;13.57;8.40;;;;;;;8.58;57.45;95904.50;5047569;28;20021;-73
2021/11/17 12:33:56;;;;;;;12.15;8.75;;;;;;;8.63;57.43;95912.06;5021501;28;20426;-72
2021/11/17 12:36:31;;;;;;;12.35;9.48;;;;;;;8.70;57.77;95897.09;5039744;28;20044;-74
2021/11/17 12:39:11;;;;;;;12.07;9.00;;;;;;;8.80;56.99;95904.19;5040116;28;20083;-74
2021/11/17 12:41:38;;;;;;;13.38;9.20;;;;;;;8.85;57.05;95904.56;5046217;28;20588;-72
2021/11/17 12:44:22;;;;;;;14.52;9.50;;;;;;;8.91;56.30;95901.28;5043498;28;20029;-74
2021/11/17 12:47:09;;;;;;;9.90;7.85;;;;;;;8.93;56.42;95907.28;5044915;28;20500;-74
2021/11/17 12:49:39;;;;;;;11.02;7.97;;;;;;;8.93;55.89;95904.59;5046834;28;20021;-75
2021/11/17 12:52:11;;;;;;;13.27;9.27;;;;;;;8.92;55.93;95902.94;5042520;28;20032;-74
2021/11/17 12:54:59;;;;;;;13.98;8.98;;;;;;;8.83;56.40;95904.72;5041097;28;20024;-73
2021/11/17 12:57:35;;;;;;;11.57;8.57;;;;;;;8.80;56.72;95910.38;5027434;28;20037;-73
2021/11/17 13:00:20;;;;;;;11.85;8.50;;;;;;;8.75;56.46;95910.81;5024250;28;20029;-72
2021/11/17 13:03:02;;;;;;;14.18;8.98;;;;;;;8.60;56.96;95904.34;5041414;28;20041;-71
2021/11/17 13:05:37;;;;;;;10.73;8.48;;;;;;;8.50;56.90;95899.03;5041630;28;20041;-71
2021/11/17 13:08:03;;;;;;;11.85;8.70;;;;;;;8.46;57.74;95900.34;5037756;28;20046;-78
2021/11/17 13:10:38;;;;;;;12.95;8.60;;;;;;;8.43;57.64;95911.34;5041366;28;20033;-73
2021/11/17 13:13:21;;;;;;;13.68;8.07;;;;;;;8.43;57.40;95909.47;5043892;28;20483;-72
2021/11/17 13:16:06;;;;;;;12.55;7.93;;;;;;;8.35;57.38;95906.75;5047815;28;20024;-73
2021/11/17 13:18:34;;;;;;;9.52;8.07;;;;;;;8.27;57.61;95911.00;5046695;28;20036;-73
2021/11/17 13:21:26;;;;;;;12.85;8.40;;;;;;;8.19;58.15;95912.75;5045128;28;20036;-72
2021/11/17 13:24:16;;;;;;;12.93;9.55;;;;;;;8.16;58.65;95906.72;5047976;28;20025;-73
2021/11/17 13:26:44;;;;;;;10.55;8.65;;;;;;;8.22;57.79;95901.78;5047154;28;20036;-74
2021/11/17 13:29:48;;;;;;;11.98;9.23;;;;;;;8.25;58.00;95906.81;5045888;28;20044;-74
2021/11/17 13:32:13;;;;;;;14.60;9.38;;;;;;;8.28;58.03;95896.66;5046670;28;20586;-73
2021/11/17 13:34:42;;;;;;;14.07;8.88;;;;;;;8.33;57.75;95887.34;5045795;28;20410;-73
2021/11/17 13:37:35;;;;;;;11.82;8.60;;;;;;;8.22;58.21;95886.56;5048229;28;20029;-73
2021/11/17 13:40:03;;;;;;;14.75;8.65;;;;;;;8.16;58.56;95887.16;5044938;28;20401;-73
2021/11/17 13:42:29;;;;;;;12.35;8.43;;;;;;;8.16;58.21;95882.66;5044977;28;20354;-73
2021/11/17 13:44:56;;;;;;;15.18;9.52;;;;;;;8.16;58.18;95892.50;5042107;28;20040;-72
2021/11/17 13:47:21;;;;;;;11.93;8.90;;;;;;;8.14;58.15;95881.97;5045598;28;20029;-73
2021/11/17 13:49:49;;;;;;;12.23;8.65;;;;;;;8.06;58.56;95884.56;5045444;28;20029;-73
2021/11/17 13:52:19;;;;;;;11.73;8.55;;;;;;;7.99;58.76;95887.00;5040168;28;20033;-73
2021/11/17 13:54:44;;;;;;;13.02;7.78;;;;;;;7.94;58.86;95883.94;5047311;28;20536;-72
2021/11/17 13:57:10;;;;;;;14.55;8.65;;;;;;;7.90;58.76;95872.69;5038295;28;20033;-73
2021/11/17 13:59:36;;;;;;;11.10;8.82;;;;;;;7.86;59.27;95886.50;5042651;28;20027;-73
2021/11/17 14:02:01;;;;;;;13.13;9.38;;;;;;;7.85;58.96;95884.84;5039201;28;20031;-73
2021/11/17 14:04:27;;;;;;;12.70;7.93;;;;;;;7.87;58.91;95886.34;5034212;28;20441;-74
2021/11/17 14:06:53;;;;;;;10.13;7.93;;;;;;;7.83;58.97;95894.81;5036456;28;20152;-73
2021/11/17 14:09:18;;;;;;;11.50;7.72;;;;;;;7.85;58.79;95890.19;5027224;28;20040;-73
2021/11/17 14:11:44;;;;;;;12.73;8.60;;;;;;;7.87;58.75;95894.38;5044400;28;20521;-73
2021/11/17 14:14:09;;;;;;;15.65;8.73;;;;;;;7.87;58.61;95886.34;5032461;28;20025;-73
2021/11/17 14:16:35;;;;;;;12.88;7.85;;;;;;;7.83;59.33;95889.47;5040720;28;20079;-72
2021/11/17 14:19:00;;;;;;;13.95;8.68;;;;;;;7.79;59.06;95892.44;5033777;28;20033;-73
2021/11/17 14:21:26;;;;;;;16.92;9.77;;;;;;;7.79;59.03;95896.94;5042767;28;20048;-75
2021/11/17 14:23:52;;;;;;;12.35;8.32;;;;;;;7.73;58.98;95902.88;5041560;28;20082;-73
2021/11/17 14:26:18;;;;;;;12.43;9.27;;;;;;;7.74;59.25;95899.19;5036942;28;20067;-72
2021/11/17 14:28:47;;;;;;;15.32;9.82;;;;;;;7.73;59.23;95903.72;5037720;28;20044;-73
2021/11/17 14:31:42;;;;;;;12.73;9.68;;;;;;;7.70;59.32;95897.81;5033925;28;20036;-73
2021/11/17 14:34:07;;;;;;;14.35;9.48;;;;;;;7.48;59.59;95900.72;5033330;28;20430;-73